createdAt,value
2023-04-02T00:00:09.713Z,4.00
2023-04-02T00:03:46.173Z,3.65
2023-04-02T00:06:54.722Z,4.53
2023-04-02T00:09:58.300Z,3.83
2023-04-02T00:13:19.111Z,3.15
2023-04-02T00:16:24.653Z,3.50
2023-04-02T00:19:41.859Z,4.85
2023-04-02T00:22:45.437Z,3.58
2023-04-02T00:25:47.829Z,3.77
2023-04-02T00:28:51.910Z,3.83
2023-04-02T00:31:55.529Z,3.55
2023-04-02T00:34:58.755Z,3.33
2023-04-02T00:38:02.468Z,3.05
2023-04-02T00:41:08.012Z,3.00
2023-04-02T00:44:13.115Z,3.63
2023-04-02T00:47:24.900Z,3.67
2023-04-02T00:50:36.191Z,3.38
2023-04-02T00:53:39.880Z,3.80
2023-04-02T00:56:46.560Z,2.97
2023-04-02T01:00:18.164Z,4.43
2023-04-02T01:03:23.079Z,2.60
2023-04-02T01:06:38.332Z,3.47
2023-04-02T01:10:16.604Z,3.72
2023-04-02T01:13:34.121Z,3.00
2023-04-02T01:17:03.964Z,2.63
2023-04-02T01:20:12.162Z,3.33
2023-04-02T01:23:28.870Z,3.17
2023-04-02T01:26:33.699Z,3.03
2023-04-02T01:29:42.589Z,3.40
2023-04-02T01:32:45.597Z,3.42
2023-04-02T01:35:55.655Z,3.47
2023-04-02T01:39:24.146Z,3.28
2023-04-02T01:42:33.636Z,3.28
2023-04-02T01:45:36.368Z,3.63
2023-04-02T01:48:40.148Z,3.63
2023-04-02T01:51:45.345Z,3.60
2023-04-02T01:54:49.138Z,3.58
2023-04-02T01:57:54.280Z,2.80
2023-04-02T02:01:09.708Z,2.92
2023-04-02T02:04:14.232Z,2.97
2023-04-02T02:07:20.819Z,3.38
2023-04-02T02:10:34.208Z,3.03
2023-04-02T02:13:37.509Z,2.90
2023-04-02T02:16:42.756Z,3.55
2023-04-02T02:19:53.752Z,2.78
2023-04-02T02:22:57.351Z,2.75
2023-04-02T02:26:00.968Z,3.15
2023-04-02T02:29:07.469Z,3.38
2023-04-02T02:32:13.293Z,3.25
2023-04-02T02:35:29.015Z,3.10
2023-04-02T02:38:42.848Z,2.67
2023-04-02T02:42:01.185Z,2.95
2023-04-02T02:45:12.771Z,2.63
2023-04-02T02:48:19.621Z,1.73
2023-04-02T02:51:41.175Z,2.70
2023-04-02T02:54:57.062Z,2.78
2023-04-02T02:58:16.450Z,2.97
2023-04-02T03:01:31.609Z,3.17
2023-04-02T03:04:38.930Z,3.50
2023-04-02T03:07:52.110Z,4.13
2023-04-02T03:11:08.857Z,3.40
2023-04-02T03:14:37.530Z,2.92
2023-04-02T03:17:52.845Z,2.38
2023-04-02T03:21:16.729Z,3.10
2023-04-02T03:24:35.336Z,3.20
2023-04-02T03:27:44.036Z,2.85
2023-04-02T03:31:05.199Z,3.17
2023-04-02T03:34:21.093Z,2.90
2023-04-02T03:37:41.379Z,2.40
2023-04-02T03:41:10.192Z,2.85
2023-04-02T03:44:29.250Z,2.97
2023-04-02T03:47:47.379Z,1.63
2023-04-02T03:51:06.305Z,2.97
2023-04-02T03:54:15.647Z,2.10
2023-04-02T03:57:53.162Z,2.70
2023-04-02T04:01:13.070Z,2.33
2023-04-02T04:04:20.206Z,2.80
2023-04-02T04:07:31.942Z,2.67
2023-04-02T04:10:35.925Z,2.70
2023-04-02T04:13:51.604Z,3.20
2023-04-02T04:17:14.596Z,3.08
2023-04-02T04:20:23.204Z,3.10
2023-04-02T04:23:31.187Z,2.72
2023-04-02T04:26:49.663Z,2.65
2023-04-02T04:30:04.327Z,2.78
2023-04-02T04:33:23.287Z,2.35
2023-04-02T04:36:36.001Z,3.03
2023-04-02T04:39:50.222Z,2.40
2023-04-02T04:42:58.025Z,2.88
2023-04-02T04:46:09.128Z,2.60
2023-04-02T04:49:18.438Z,2.65
2023-04-02T04:52:29.973Z,2.72
2023-04-02T04:55:44.695Z,2.50
2023-04-02T04:59:16.137Z,2.57
2023-04-02T05:02:34.651Z,2.47
2023-04-02T05:05:40.926Z,2.45
2023-04-02T05:08:49.352Z,2.25
2023-04-02T05:12:12.708Z,3.08
2023-04-02T05:15:33.554Z,2.83
2023-04-02T05:18:45.647Z,2.80
2023-04-02T05:22:16.305Z,2.90
2023-04-02T05:25:27.915Z,2.38
2023-04-02T05:28:52.935Z,2.58
2023-04-02T05:32:04.393Z,2.30
2023-04-02T05:35:17.101Z,2.55
2023-04-02T05:38:28.593Z,2.10
2023-04-02T05:41:39.981Z,2.83
2023-04-02T05:45:16.716Z,2.33
2023-04-02T05:48:26.003Z,2.60
2023-04-02T05:51:41.866Z,2.03
2023-04-02T05:54:51.050Z,2.20
2023-04-02T06:01:21.614Z,2.58
2023-04-02T06:04:31.621Z,1.70
2023-04-02T06:07:50.171Z,2.47
2023-04-02T06:11:02.941Z,1.63
2023-04-02T06:14:06.270Z,1.67
2023-04-02T06:17:16.811Z,1.65
2023-04-02T06:20:20.777Z,1.42
2023-04-02T06:23:50.194Z,2.10
2023-04-02T06:27:02.928Z,1.95
2023-04-02T06:30:07.833Z,1.92
2023-04-02T06:33:13.246Z,1.80
2023-04-02T06:36:21.000Z,1.70
2023-04-02T06:39:25.774Z,1.73
2023-04-02T06:42:39.267Z,1.75
2023-04-02T06:45:53.880Z,1.75
2023-04-02T06:49:44.821Z,1.30
2023-04-02T06:52:57.641Z,1.60
2023-04-02T06:56:09.228Z,1.90
2023-04-02T06:59:13.359Z,1.83
2023-04-02T07:02:36.337Z,2.35
2023-04-02T07:05:43.051Z,1.90
2023-04-02T07:08:46.127Z,1.73
2023-04-02T07:11:49.949Z,1.73
2023-04-02T07:14:54.086Z,2.30
2023-04-02T07:17:59.512Z,2.37
2023-04-02T07:21:03.167Z,1.90
2023-04-02T07:24:07.435Z,1.90
2023-04-02T07:27:12.128Z,1.55
2023-04-02T07:30:15.173Z,1.85
2023-04-02T07:33:20.759Z,1.55
2023-04-02T07:36:24.805Z,1.30
2023-04-02T07:39:27.357Z,1.70
2023-04-02T07:42:30.518Z,1.65
2023-04-02T07:45:33.032Z,1.50
2023-04-02T07:48:35.752Z,1.67
2023-04-02T07:51:37.737Z,1.48
2023-04-02T07:54:40.684Z,1.50
2023-04-02T07:57:51.902Z,1.58
2023-04-02T08:00:54.523Z,1.38
2023-04-02T08:03:58.226Z,1.33
2023-04-02T08:07:02.073Z,1.60
2023-04-02T08:10:04.754Z,1.50
2023-04-02T08:13:07.255Z,1.40
2023-04-02T08:16:11.003Z,1.83
2023-04-02T08:19:13.810Z,1.67
2023-04-02T08:22:16.088Z,1.45
2023-04-02T08:25:18.933Z,1.70
2023-04-02T08:28:21.766Z,1.60
2023-04-02T08:31:24.622Z,1.45
2023-04-02T08:34:27.065Z,1.77
2023-04-02T08:37:29.630Z,1.55
2023-04-02T08:40:36.784Z,1.60
2023-04-02T08:44:12.976Z,2.00
2023-04-02T08:47:17.611Z,1.70
2023-04-02T08:50:32.948Z,1.50
2023-04-02T08:53:39.336Z,1.40
2023-04-02T08:56:53.227Z,1.58
2023-04-02T09:00:06.597Z,1.52
2023-04-02T09:03:20.618Z,1.30
2023-04-02T09:06:23.599Z,1.40
2023-04-02T09:09:27.320Z,0.90
2023-04-02T09:12:32.470Z,1.08
2023-04-02T09:15:37.075Z,1.15
2023-04-02T09:18:40.742Z,1.30
2023-04-02T09:21:57.115Z,1.33
2023-04-02T09:25:06.656Z,1.25
2023-04-02T09:28:12.034Z,1.02
2023-04-02T09:31:29.136Z,1.25
2023-04-02T09:34:33.940Z,1.40
2023-04-02T09:37:37.709Z,1.25
2023-04-02T09:40:47.070Z,1.30
2023-04-02T09:43:49.277Z,1.20
2023-04-02T09:47:06.677Z,1.10
2023-04-02T09:50:35.246Z,0.90
2023-04-02T09:53:46.355Z,0.93
2023-04-02T09:57:06.037Z,1.38
2023-04-02T10:00:31.535Z,1.00
2023-04-02T10:03:43.753Z,1.52
2023-04-02T10:06:51.158Z,1.23
2023-04-02T10:10:01.301Z,0.90
2023-04-02T10:13:26.863Z,1.38
2023-04-02T10:16:48.853Z,0.80
2023-04-02T10:19:56.482Z,1.70
2023-04-02T10:22:58.685Z,0.93
2023-04-02T10:26:24.785Z,1.25
2023-04-02T10:30:02.828Z,0.82
2023-04-02T10:33:15.813Z,0.93
2023-04-02T10:36:45.437Z,1.15
2023-04-02T10:39:59.134Z,1.20
2023-04-02T10:43:38.699Z,1.13
2023-04-02T10:47:01.464Z,1.27
2023-04-02T10:50:16.434Z,1.35
2023-04-02T10:53:21.729Z,1.33
2023-04-02T10:56:26.673Z,1.20
2023-04-02T10:59:35.174Z,1.25
2023-04-02T11:02:45.082Z,1.10
2023-04-02T11:05:51.200Z,1.23
2023-04-02T11:08:59.387Z,1.00
2023-04-02T11:12:03.421Z,1.20
2023-04-02T11:15:16.291Z,1.25
2023-04-02T11:18:32.830Z,1.45
2023-04-02T11:21:57.377Z,1.30
2023-04-02T11:25:03.160Z,1.73
2023-04-02T11:28:31.991Z,1.13
2023-04-02T11:31:34.890Z,1.35
2023-04-02T11:34:59.855Z,1.10
2023-04-02T11:38:11.922Z,1.48
2023-04-02T11:41:14.326Z,1.10
2023-04-02T11:44:24.630Z,1.00
2023-04-02T11:47:31.032Z,1.35
2023-04-02T11:50:41.232Z,1.17
2023-04-02T11:53:44.042Z,1.10
2023-04-02T11:57:03.626Z,1.42
2023-04-02T12:00:39.712Z,1.23
2023-04-02T12:03:48.502Z,1.13
2023-04-02T12:07:10.928Z,1.52
2023-04-02T12:10:23.624Z,1.38
2023-04-02T12:13:41.427Z,1.38
2023-04-02T12:16:44.641Z,1.52
2023-04-02T12:19:52.793Z,1.25
2023-04-02T12:22:57.128Z,1.10
2023-04-02T12:26:06.784Z,1.10
2023-04-02T12:29:27.459Z,1.20
2023-04-02T12:32:31.222Z,1.70
2023-04-02T12:35:36.321Z,1.20
2023-04-02T12:38:52.168Z,1.20
2023-04-02T12:41:54.820Z,1.33
2023-04-02T12:44:57.265Z,1.52
2023-04-02T12:48:05.407Z,1.30
2023-04-02T12:51:07.721Z,1.10
2023-04-02T12:54:17.780Z,1.00
2023-04-02T12:57:21.590Z,0.80
2023-04-02T13:00:27.694Z,1.30
2023-04-02T13:03:30.358Z,1.10
2023-04-02T13:06:33.925Z,1.35
2023-04-02T13:09:43.439Z,1.15
2023-04-02T13:12:46.345Z,1.10
2023-04-02T13:16:03.128Z,1.23
2023-04-02T13:19:18.376Z,0.80
2023-04-02T13:25:37.053Z,1.08
2023-04-02T13:28:39.312Z,1.55
2023-04-02T13:31:42.232Z,1.08
2023-04-02T13:34:44.475Z,1.17
2023-04-02T13:37:47.132Z,1.17
2023-04-02T13:40:49.337Z,1.35
2023-04-02T13:43:54.216Z,0.93
2023-04-02T13:46:57.245Z,0.90
2023-04-02T13:50:00.207Z,1.35
2023-04-02T13:53:10.382Z,1.10
2023-04-02T13:56:13.344Z,1.15
2023-04-02T13:59:16.616Z,1.10
2023-04-02T14:02:25.000Z,0.90
2023-04-02T14:05:42.360Z,1.02
2023-04-02T14:08:58.847Z,1.08
2023-04-02T14:12:10.873Z,1.35
2023-04-02T14:15:21.322Z,0.70
2023-04-02T14:18:57.097Z,1.30
2023-04-02T14:22:20.784Z,0.68
2023-04-02T14:25:28.642Z,0.85
2023-04-02T14:28:42.706Z,1.00
2023-04-02T14:31:56.047Z,0.70
2023-04-02T14:35:19.709Z,1.00
2023-04-02T14:38:56.293Z,1.08
2023-04-02T14:42:05.352Z,0.77
2023-04-02T14:45:29.183Z,1.10
2023-04-02T14:48:50.586Z,1.10
2023-04-02T14:52:05.857Z,0.88
2023-04-02T14:55:22.127Z,1.02
2023-04-02T14:58:33.498Z,0.80
2023-04-02T15:01:43.600Z,1.13
2023-04-02T15:05:01.207Z,1.08
2023-04-02T15:08:16.599Z,0.52
2023-04-02T15:11:26.654Z,0.70
2023-04-02T15:14:35.936Z,0.63
2023-04-02T15:17:39.518Z,0.80
2023-04-02T15:21:06.177Z,0.60
2023-04-02T15:24:11.193Z,0.80
2023-04-02T15:27:25.598Z,0.88
2023-04-02T15:30:35.714Z,0.90
2023-04-02T15:33:41.492Z,0.80
2023-04-02T15:37:20.011Z,0.40
2023-04-02T15:40:25.890Z,0.60
2023-04-02T15:43:33.043Z,0.95
2023-04-02T15:47:11.723Z,0.55
2023-04-02T15:50:43.561Z,0.80
2023-04-02T15:54:01.692Z,0.60
2023-04-02T15:57:16.142Z,0.60
2023-04-02T16:00:30.778Z,0.77
2023-04-02T16:03:55.336Z,0.80
2023-04-02T16:07:28.867Z,0.55
2023-04-02T16:10:42.040Z,0.70
2023-04-02T16:13:45.890Z,0.70
2023-04-02T16:16:50.712Z,0.60
2023-04-02T16:20:22.882Z,0.82
2023-04-02T16:23:43.958Z,0.60
2023-04-02T16:27:16.992Z,1.23
2023-04-02T16:30:38.112Z,0.85
2023-04-02T16:33:56.225Z,0.70
2023-04-02T16:37:11.753Z,0.50
2023-04-02T16:40:37.878Z,0.63
2023-04-02T16:43:55.026Z,0.82
2023-04-02T16:47:01.944Z,0.60
2023-04-02T16:50:34.861Z,0.90
2023-04-02T16:53:58.393Z,0.73
2023-04-02T16:57:06.325Z,0.90
2023-04-02T17:00:57.070Z,0.75
2023-04-02T17:04:09.243Z,0.70
2023-04-02T17:07:34.505Z,0.60
2023-04-02T17:11:01.090Z,1.23
2023-04-02T17:14:12.745Z,0.70
2023-04-02T17:17:15.936Z,0.50
2023-04-02T17:20:24.680Z,0.70
2023-04-02T17:23:29.940Z,0.47
2023-04-02T17:26:37.098Z,0.70
2023-04-02T17:29:43.561Z,0.70
2023-04-02T17:32:46.849Z,0.65
2023-04-02T17:36:27.647Z,0.63
2023-04-02T17:39:42.686Z,0.60
2023-04-02T17:43:12.858Z,0.63
2023-04-02T17:46:52.777Z,0.70
2023-04-02T17:50:12.900Z,0.60
2023-04-02T17:53:38.046Z,1.00
2023-04-02T17:57:08.189Z,0.80
2023-04-02T18:00:22.593Z,0.70
2023-04-02T18:03:49.726Z,0.95
2023-04-02T18:07:11.189Z,1.48
2023-04-02T18:10:27.612Z,3.10
2023-04-02T18:13:50.366Z,4.75
2023-04-02T18:16:57.695Z,3.78
2023-04-02T18:20:27.847Z,3.50
2023-04-02T18:23:54.057Z,2.53
2023-04-02T18:27:25.775Z,1.40
2023-04-02T18:30:39.536Z,2.30
2023-04-02T18:34:19.862Z,2.10
2023-04-02T18:37:37.415Z,2.03
2023-04-02T18:40:58.305Z,2.47
2023-04-02T18:44:16.958Z,1.92
2023-04-02T18:47:25.520Z,2.25
2023-04-02T18:50:35.844Z,2.10
2023-04-02T18:53:38.992Z,1.70
2023-04-02T18:56:44.031Z,1.90
2023-04-02T19:00:02.224Z,2.13
2023-04-02T19:03:17.840Z,2.03
2023-04-02T19:06:28.870Z,2.20
2023-04-02T19:09:34.470Z,2.60
2023-04-02T19:12:37.154Z,1.00
2023-04-02T19:15:55.474Z,1.73
2023-04-02T19:19:19.722Z,1.45
2023-04-02T19:22:40.821Z,1.75
2023-04-02T19:26:16.349Z,2.35
2023-04-02T19:29:31.606Z,1.90
2023-04-02T19:32:34.617Z,1.50
2023-04-02T19:36:05.839Z,1.77
2023-04-02T19:39:14.310Z,2.00
2023-04-02T19:42:41.287Z,2.35
2023-04-02T19:45:48.418Z,1.48
2023-04-02T19:49:26.160Z,1.33
2023-04-02T19:52:28.947Z,1.80
2023-04-02T19:55:31.666Z,1.23
2023-04-02T19:58:36.894Z,1.48
2023-04-02T20:01:39.104Z,1.52
2023-04-02T20:04:42.651Z,1.20
2023-04-02T20:07:45.074Z,1.67
2023-04-02T20:10:48.038Z,1.30
2023-04-02T20:13:50.736Z,1.25
2023-04-02T20:16:53.258Z,1.48
2023-04-02T20:19:56.650Z,1.65
2023-04-02T20:22:59.842Z,1.17
2023-04-02T20:26:03.613Z,1.10
2023-04-02T20:29:06.627Z,1.00
2023-04-02T20:32:13.524Z,1.00
2023-04-02T20:35:16.308Z,1.20
2023-04-02T20:38:18.936Z,1.00
2023-04-02T20:41:22.699Z,1.13
2023-04-02T20:44:25.103Z,1.10
2023-04-02T20:47:27.968Z,1.02
2023-04-02T20:50:30.949Z,1.10
2023-04-02T20:53:35.216Z,0.88
2023-04-02T20:56:37.646Z,0.90
2023-04-02T20:59:40.835Z,0.90
2023-04-02T21:02:43.003Z,0.75
2023-04-02T21:05:47.561Z,0.90
2023-04-02T21:08:50.447Z,0.75
2023-04-02T21:11:53.109Z,0.80
2023-04-02T21:15:00.236Z,0.93
2023-04-02T21:18:04.995Z,0.80
2023-04-02T21:21:08.825Z,0.90
2023-04-02T21:24:12.037Z,0.90
2023-04-02T21:27:14.659Z,0.70
2023-04-02T21:30:17.828Z,0.70
2023-04-02T21:33:19.815Z,0.75
2023-04-02T21:36:31.795Z,0.95
2023-04-02T21:39:34.789Z,1.30
2023-04-02T21:42:37.465Z,0.82
2023-04-02T21:45:39.969Z,1.00
2023-04-02T21:48:42.651Z,1.00
2023-04-02T21:51:47.317Z,0.80
2023-04-02T21:54:49.910Z,1.13
2023-04-02T21:57:52.025Z,0.68
2023-04-02T22:00:54.419Z,1.00
2023-04-02T22:03:58.250Z,0.90
2023-04-02T22:07:01.029Z,0.63
2023-04-02T22:10:03.347Z,1.00
2023-04-02T22:13:05.950Z,1.10
2023-04-02T22:16:13.466Z,0.93
2023-04-02T22:19:17.245Z,0.70
2023-04-02T22:22:19.270Z,1.20
2023-04-02T22:25:21.877Z,0.80
2023-04-02T22:28:24.175Z,1.10
2023-04-02T22:31:28.907Z,0.70
2023-04-02T22:34:32.594Z,0.73
2023-04-02T22:37:35.274Z,0.80
2023-04-02T22:40:37.618Z,0.60
2023-04-02T22:43:44.207Z,1.17
2023-04-02T22:46:46.712Z,0.90
2023-04-02T22:49:50.210Z,0.90
2023-04-02T22:52:52.357Z,0.80
2023-04-02T22:55:54.925Z,0.63
2023-04-02T22:58:57.157Z,0.77
2023-04-02T23:01:59.796Z,0.75
2023-04-02T23:05:02.077Z,0.70
2023-04-02T23:08:05.452Z,0.55
2023-04-02T23:11:13.474Z,0.85
2023-04-02T23:14:16.052Z,0.73
2023-04-02T23:17:18.429Z,0.80
2023-04-02T23:20:21.445Z,0.77
2023-04-02T23:23:24.400Z,1.00
2023-04-02T23:26:29.751Z,0.80
2023-04-02T23:29:34.518Z,0.80
2023-04-02T23:32:37.430Z,0.70
2023-04-02T23:35:39.706Z,0.60
2023-04-02T23:38:42.229Z,0.70
2023-04-02T23:41:44.539Z,0.90
2023-04-02T23:44:47.076Z,1.30
2023-04-02T23:47:49.281Z,0.73
2023-04-02T23:50:51.857Z,1.10
2023-04-02T23:53:55.665Z,1.02
2023-04-02T23:56:58.131Z,0.70
